Time;durP1;ratioP1;P1;durP2;ratioP2;P2;SDS_P1;SDS_P2;PMS_P1;PMS_P2;Temp;Humidity;BMP_temperature;BMP_pressure;BME280_temperature;BME280_humidity;BME280_pressure;Samples;Min_cycle;Max_cycle;Signal;HPM_P1;HPM_P2
2021/12/26 00:02:24;;;;;;;11.43;6.55;;;8.20;60.90;;;;;;4955466;29;20085;-82
2021/12/26 00:04:51;;;;;;;11.77;7.93;;;8.20;62.30;;;;;;4969397;28;20027;-82
2021/12/26 00:07:17;;;;;;;13.50;7.22;;;8.50;61.80;;;;;;4955211;29;20046;-82
2021/12/26 00:09:43;;;;;;;9.63;5.45;;;8.70;61.50;;;;;;4955110;29;20034;-86
2021/12/26 00:12:09;;;;;;;9.27;4.80;;;8.20;60.20;;;;;;4954039;29;20027;-83
2021/12/26 00:14:35;;;;;;;9.00;5.10;;;7.70;60.80;;;;;;4953788;29;20055;-82
2021/12/26 00:17:01;;;;;;;9.85;5.45;;;7.70;62.00;;;;;;4954776;29;20039;-82
2021/12/26 00:19:27;;;;;;;9.70;5.88;;;8.10;61.60;;;;;;4955276;29;20031;-82
2021/12/26 00:21:52;;;;;;;10.63;5.65;;;7.80;61.60;;;;;;4954895;29;20031;-81
2021/12/26 00:24:19;;;;;;;10.68;6.45;;;7.60;62.40;;;;;;4954710;29;20102;-82
2021/12/26 00:26:45;;;;;;;11.63;6.95;;;7.90;62.50;;;;;;4937699;29;20472;-82
2021/12/26 00:29:11;;;;;;;10.98;7.32;;;7.90;62.10;;;;;;4955084;29;20039;-82
2021/12/26 00:31:37;;;;;;;12.18;7.43;;;8.10;61.80;;;;;;4953734;29;20393;-82
2021/12/26 00:34:04;;;;;;;11.63;6.97;;;8.00;62.10;;;;;;4955491;29;20493;-82
2021/12/26 00:36:30;;;;;;;10.57;5.93;;;7.40;62.20;;;;;;4953524;29;20092;-82
2021/12/26 00:38:56;;;;;;;10.23;6.45;;;7.00;63.40;;;;;;4954672;29;20039;-81
2021/12/26 00:41:22;;;;;;;13.70;7.72;;;7.30;63.60;;;;;;4954848;29;20610;-82
2021/12/26 00:43:48;;;;;;;11.55;7.43;;;7.50;62.60;;;;;;4969637;28;20480;-82
2021/12/26 00:46:13;;;;;;;11.95;7.03;;;7.60;63.20;;;;;;4953436;29;20055;-81
2021/12/26 00:48:39;;;;;;;9.55;6.20;;;8.10;61.60;;;;;;4953304;29;20073;-81
2021/12/26 00:51:05;;;;;;;10.10;5.53;;;7.90;61.00;;;;;;4953396;29;20024;-82
2021/12/26 00:53:33;;;;;;;10.50;5.50;;;8.00;60.60;;;;;;4954884;29;20035;-81
2021/12/26 00:55:59;;;;;;;8.13;4.55;;;8.00;60.20;;;;;;4954698;29;20023;-81
2021/12/26 00:58:25;;;;;;;9.23;4.50;;;7.80;59.80;;;;;;4953582;29;20054;-81
2021/12/26 01:00:51;;;;;;;7.20;4.20;;;7.60;60.00;;;;;;4953607;29;20384;-83
2021/12/26 01:03:18;;;;;;;7.03;3.92;;;7.80;60.30;;;;;;4954704;29;20380;-81
2021/12/26 01:05:53;;;;;;;6.20;3.55;;;7.70;60.20;;;;;;4953397;29;20023;-82
2021/12/26 01:08:24;;;;;;;6.70;3.53;;;7.50;60.70;;;;;;4954570;29;20019;-82
2021/12/26 01:11:01;;;;;;;5.80;3.20;;;7.70;60.50;;;;;;4953333;29;20643;-82
2021/12/26 01:13:34;;;;;;;6.65;3.40;;;7.80;59.80;;;;;;4953487;29;20078;-82
2021/12/26 01:16:05;;;;;;;4.78;2.80;;;7.90;59.10;;;;;;4953719;28;20062;-82
2021/12/26 01:18:35;;;;;;;;;;;8.00;58.60;;;;;;4957011;29;20042;-82
2021/12/26 01:21:17;;;;;;;5.75;3.10;;;7.70;57.90;;;;;;4956558;29;19906;-81
2021/12/26 01:23:44;;;;;;;6.50;3.40;;;7.60;59.10;;;;;;4956930;29;20091;-81
2021/12/26 01:26:10;;;;;;;5.75;2.95;;;7.70;60.10;;;;;;4957982;29;20028;-81
2021/12/26 01:28:36;;;;;;;5.32;2.85;;;7.80;58.20;;;;;;4940556;29;20024;-80
2021/12/26 01:31:02;;;;;;;6.30;3.28;;;7.60;57.60;;;;;;4956807;29;20421;-81
2021/12/26 01:33:28;;;;;;;5.65;3.17;;;7.00;59.30;;;;;;4956644;29;20023;-83
2021/12/26 01:35:55;;;;;;;5.60;3.10;;;6.90;60.20;;;;;;4957697;29;20476;-82
2021/12/26 01:38:21;;;;;;;7.93;3.42;;;6.50;60.00;;;;;;4957452;29;20039;-81
2021/12/26 01:40:54;;;;;;;6.18;3.20;;;6.50;60.40;;;;;;4956272;28;20035;-81
2021/12/26 01:43:25;;;;;;;6.40;3.20;;;6.50;60.60;;;;;;4956107;29;20087;-81
2021/12/26 01:45:51;;;;;;;;;;;6.60;61.00;;;;;;4957748;29;20110;-81
2021/12/26 01:48:17;;;;;;;6.78;3.50;;;6.30;60.70;;;;;;4957345;29;20008;-81
2021/12/26 01:50:45;;;;;;;8.57;3.80;;;6.40;60.80;;;;;;4955888;29;20055;-82
2021/12/26 01:53:11;;;;;;;7.60;3.58;;;6.50;60.70;;;;;;4956001;29;20515;-81
2021/12/26 01:55:42;;;;;;;7.35;3.85;;;6.50;61.10;;;;;;4957245;29;20105;-81
2021/12/26 01:58:11;;;;;;;6.63;3.38;;;6.70;61.10;;;;;;4955822;29;20039;-81
2021/12/26 02:00:39;;;;;;;6.70;3.67;;;6.50;60.50;;;;;;4956133;29;20023;-80
2021/12/26 02:03:05;;;;;;;8.40;3.90;;;5.90;61.70;;;;;;4957484;29;20031;-80
2021/12/26 02:05:31;;;;;;;6.28;3.45;;;5.90;62.50;;;;;;4955825;29;20521;-81
2021/12/26 02:07:57;;;;;;;6.55;3.72;;;5.50;62.90;;;;;;4957283;29;20426;-81
2021/12/26 02:10:22;;;;;;;6.93;3.60;;;5.50;63.30;;;;;;4955958;29;20030;-81
2021/12/26 02:12:48;;;;;;;7.45;3.42;;;5.70;63.20;;;;;;4939525;29;20027;-82
2021/12/26 02:15:14;;;;;;;5.90;3.50;;;5.50;62.90;;;;;;4955785;29;20114;-80
2021/12/26 02:17:39;;;;;;;6.57;3.25;;;5.80;62.60;;;;;;4955473;29;20504;-82
2021/12/26 02:20:43;;;;;;;6.53;3.58;;;5.50;62.10;;;;;;4955330;29;20027;-84
2021/12/26 02:23:24;;;;;;;6.00;3.38;;;5.60;63.50;;;;;;4955257;29;20062;-81
2021/12/26 02:28:24;;;;;;;5.78;3.28;;;5.70;62.40;;;;;;4956569;28;20121;-81
2021/12/26 02:30:51;;;;;;;6.30;3.17;;;5.30;62.20;;;;;;4955562;28;20133;-81
2021/12/26 02:33:18;;;;;;;6.82;3.58;;;5.30;63.50;;;;;;4956692;29;20151;-81
2021/12/26 02:35:46;;;;;;;7.15;3.67;;;5.10;63.40;;;;;;4955376;29;20066;-81
2021/12/26 02:38:14;;;;;;;6.60;3.40;;;5.20;63.60;;;;;;4955294;29;20039;-81
2021/12/26 02:40:42;;;;;;;6.03;3.35;;;5.30;63.50;;;;;;4955076;29;20065;-81
2021/12/26 02:43:08;;;;;;;5.97;3.10;;;5.80;62.50;;;;;;4954842;29;20034;-81
2021/12/26 02:45:35;;;;;;;7.55;3.33;;;5.90;61.60;;;;;;4955542;28;20384;-82
2021/12/26 02:48:01;;;;;;;6.93;3.53;;;5.40;61.70;;;;;;4956449;29;20047;-82
2021/12/26 02:50:31;;;;;;;6.05;3.00;;;5.70;62.50;;;;;;4955358;29;20027;-82
2021/12/26 02:52:59;;;;;;;6.07;3.08;;;5.80;61.90;;;;;;4955139;29;20035;-82
2021/12/26 02:55:25;;;;;;;5.47;2.90;;;6.10;60.90;;;;;;4955097;29;20062;-82
2021/12/26 02:57:56;;;;;;;6.88;3.17;;;6.40;60.00;;;;;;4956250;29;20428;-82
2021/12/26 03:00:25;;;;;;;5.55;2.75;;;6.40;60.50;;;;;;4955118;29;20023;-81
2021/12/26 03:02:53;;;;;;;5.55;2.90;;;6.50;59.90;;;;;;4939226;29;20034;-82
2021/12/26 03:05:20;;;;;;;5.95;2.90;;;7.00;59.40;;;;;;4955922;29;20027;-85
2021/12/26 03:07:47;;;;;;;6.72;3.25;;;7.00;58.00;;;;;;4956161;29;20544;-81
2021/12/26 03:10:21;;;;;;;6.75;3.30;;;7.00;58.60;;;;;;4954897;29;20027;-82
2021/12/26 03:12:49;;;;;;;6.03;3.17;;;7.20;57.90;;;;;;4954865;29;20082;-82
2021/12/26 03:15:15;;;;;;;5.18;2.75;;;7.30;58.10;;;;;;4956093;29;20030;-83
2021/12/26 03:17:41;;;;;;;5.82;3.13;;;7.10;58.00;;;;;;4955890;29;20455;-82
2021/12/26 03:20:12;;;;;;;4.78;2.85;;;7.10;58.20;;;;;;4955739;29;20445;-83
2021/12/26 03:22:38;;;;;;;5.85;2.75;;;7.20;57.60;;;;;;4955925;29;20027;-83
2021/12/26 03:25:09;;;;;;;6.03;2.88;;;7.20;57.20;;;;;;4954569;29;20376;-82
2021/12/26 03:27:35;;;;;;;4.90;2.55;;;7.00;57.20;;;;;;4954516;28;20481;-84
2021/12/26 03:30:01;;;;;;;5.57;2.80;;;6.70;57.50;;;;;;4954651;29;20035;-83
2021/12/26 03:32:27;;;;;;;5.43;2.83;;;6.80;58.40;;;;;;4954816;28;20079;-82
2021/12/26 03:34:53;;;;;;;5.28;2.80;;;7.10;57.60;;;;;;4954445;29;20031;-82
2021/12/26 03:37:19;;;;;;;6.72;2.90;;;7.20;57.30;;;;;;4954752;29;20035;-82
2021/12/26 03:39:45;;;;;;;6.43;2.90;;;7.60;56.80;;;;;;4953996;28;20531;-82
2021/12/26 03:42:11;;;;;;;6.22;3.33;;;7.90;55.60;;;;;;4955701;29;20031;-82
2021/12/26 03:44:37;;;;;;;4.28;2.60;;;7.90;55.30;;;;;;4954513;29;20031;-83
2021/12/26 03:47:03;;;;;;;5.78;2.90;;;7.30;55.30;;;;;;4954294;29;20071;-82
2021/12/26 03:49:29;;;;;;;5.43;2.55;;;6.90;56.20;;;;;;4955465;29;20042;-83
2021/12/26 03:51:55;;;;;;;4.80;2.63;;;6.30;58.40;;;;;;4954899;29;20027;-82
2021/12/26 03:54:21;;;;;;;5.35;2.90;;;6.20;58.30;;;;;;4955694;29;20023;-83
2021/12/26 03:56:46;;;;;;;5.78;2.88;;;6.40;58.30;;;;;;4938516;29;20031;-83
2021/12/26 03:59:12;;;;;;;5.20;2.55;;;6.40;58.10;;;;;;4955321;29;20074;-82
2021/12/26 04:01:38;;;;;;;5.15;2.50;;;6.30;56.70;;;;;;4954313;29;20027;-83
2021/12/26 04:04:04;;;;;;;4.60;2.47;;;6.30;57.70;;;;;;4954060;29;20141;-84
2021/12/26 04:06:30;;;;;;;5.43;2.88;;;6.40;57.70;;;;;;4955627;29;20051;-83
2021/12/26 04:08:56;;;;;;;5.93;2.60;;;6.70;56.70;;;;;;4954336;28;20419;-84
2021/12/26 04:11:24;;;;;;;7.85;2.80;;;6.50;56.50;;;;;;4954513;29;20051;-83
2021/12/26 04:13:50;;;;;;;5.47;2.70;;;6.70;57.00;;;;;;4954141;28;20365;-84
2021/12/26 04:16:16;;;;;;;5.68;2.47;;;7.10;57.10;;;;;;4955400;29;20361;-84
2021/12/26 04:18:42;;;;;;;5.35;2.58;;;7.10;54.70;;;;;;4955472;29;20047;-84
2021/12/26 04:21:08;;;;;;;5.72;2.53;;;7.20;55.30;;;;;;4955369;29;20042;-83
2021/12/26 04:23:34;;;;;;;4.88;2.35;;;7.30;55.20;;;;;;4954062;28;20055;-83
2021/12/26 04:26:00;;;;;;;4.22;2.13;;;7.10;54.80;;;;;;4955239;29;20031;-83
2021/12/26 04:30:28;;;;;;;4.97;2.45;;;6.80;55.10;;;;;;5085623;27;1423143;-85
2021/12/26 04:32:54;;;;;;;4.63;2.58;;;7.00;55.10;;;;;;5093315;28;20059;-84
2021/12/26 04:35:20;;;;;;;6.22;2.50;;;7.10;53.90;;;;;;5093474;28;20027;-84
2021/12/26 04:37:46;;;;;;;5.43;2.40;;;7.60;54.70;;;;;;5093661;28;20098;-85
2021/12/26 04:40:14;;;;;;;5.13;2.50;;;7.90;53.20;;;;;;5111057;28;20028;-84
2021/12/26 04:42:43;;;;;;;5.80;2.75;;;8.20;52.60;;;;;;5088731;28;20107;-84
2021/12/26 04:45:09;;;;;;;5.00;2.35;;;8.00;50.80;;;;;;5072901;28;20024;-84
2021/12/26 04:47:38;;;;;;;5.82;2.50;;;8.10;51.60;;;;;;5072792;28;20028;-85
2021/12/26 04:50:10;;;;;;;5.45;2.20;;;8.00;51.80;;;;;;5090788;28;20037;-85
2021/12/26 04:52:36;;;;;;;4.05;2.20;;;8.00;51.80;;;;;;5072709;28;20027;-84
2021/12/26 04:55:02;;;;;;;4.75;2.25;;;7.20;52.20;;;;;;5072673;28;20024;-84
2021/12/26 04:57:28;;;;;;;4.88;2.20;;;7.30;53.20;;;;;;5072436;28;20052;-84
2021/12/26 04:59:55;;;;;;;3.72;2.00;;;7.50;52.90;;;;;;5072701;28;20071;-84
2021/12/26 05:02:20;;;;;;;5.50;2.22;;;7.50;51.50;;;;;;5072614;28;20020;-84
2021/12/26 05:04:46;;;;;;;4.78;2.40;;;7.80;52.00;;;;;;5072570;28;20028;-85
2021/12/26 05:07:12;;;;;;;4.72;2.40;;;8.00;51.70;;;;;;5072514;28;20498;-84
2021/12/26 05:09:37;;;;;;;4.63;2.40;;;7.80;52.10;;;;;;5090167;28;20044;-85
2021/12/26 05:12:04;;;;;;;5.53;2.70;;;8.10;51.90;;;;;;5072247;28;20410;-85
2021/12/26 05:14:29;;;;;;;4.90;2.25;;;8.40;51.80;;;;;;5071714;28;20394;-84
2021/12/26 05:16:55;;;;;;;6.65;2.67;;;7.80;50.90;;;;;;5072324;28;20025;-86
2021/12/26 05:19:20;;;;;;;5.15;2.70;;;6.90;53.50;;;;;;5072282;28;20399;-84
2021/12/26 05:21:46;;;;;;;5.32;2.75;;;6.90;54.40;;;;;;5072196;28;20108;-85
2021/12/26 05:24:12;;;;;;;6.15;2.85;;;7.40;54.60;;;;;;5071826;28;20025;-84
2021/12/26 05:26:38;;;;;;;5.53;3.00;;;7.70;53.60;;;;;;5072157;28;20042;-85
2021/12/26 05:29:03;;;;;;;5.15;2.72;;;8.00;52.70;;;;;;5071550;28;20056;-85
2021/12/26 05:31:29;;;;;;;6.45;2.30;;;8.30;51.80;;;;;;5071763;28;20024;-85
2021/12/26 05:33:55;;;;;;;5.72;2.50;;;8.00;50.60;;;;;;5071791;28;20024;-85
2021/12/26 05:36:20;;;;;;;6.32;2.45;;;7.90;51.90;;;;;;5089940;28;20471;-85
2021/12/26 05:38:46;;;;;;;5.35;3.03;;;7.70;50.50;;;;;;5071999;28;20028;-84
2021/12/26 05:41:12;;;;;;;5.97;3.10;;;7.00;52.60;;;;;;5061428;28;20049;-84
2021/12/26 05:43:38;;;;;;;4.70;2.28;;;7.10;53.10;;;;;;5076222;28;20025;-84
2021/12/26 05:46:03;;;;;;;4.03;2.05;;;7.20;53.00;;;;;;5076234;28;20029;-85
2021/12/26 05:48:29;;;;;;;5.15;2.38;;;7.30;52.70;;;;;;5057973;28;20399;-84
2021/12/26 05:50:55;;;;;;;5.18;2.20;;;7.80;52.30;;;;;;5076363;28;20021;-84
2021/12/26 05:53:21;;;;;;;5.90;3.00;;;8.10;51.20;;;;;;5058152;28;20040;-85
2021/12/26 05:55:47;;;;;;;7.88;3.83;;;8.40;51.40;;;;;;5075716;28;20032;-86
2021/12/26 05:58:12;;;;;;;6.20;3.22;;;7.90;52.30;;;;;;5075760;28;20426;-85
2021/12/26 06:00:38;;;;;;;7.57;4.45;;;7.30;51.10;;;;;;5057984;28;20414;-85
2021/12/26 06:03:04;;;;;;;6.40;2.60;;;6.50;54.40;;;;;;5058218;28;20070;-85
2021/12/26 06:05:29;;;;;;;5.95;3.00;;;6.50;56.00;;;;;;5057864;28;20573;-86
2021/12/26 06:07:55;;;;;;;7.07;3.80;;;6.70;54.40;;;;;;5076029;28;20025;-85
2021/12/26 06:10:21;;;;;;;10.95;5.43;;;6.70;53.90;;;;;;5058118;28;20037;-85
2021/12/26 06:12:47;;;;;;;7.22;4.07;;;7.00;54.20;;;;;;5057728;28;20033;-84
2021/12/26 06:15:13;;;;;;;10.35;4.55;;;7.50;52.80;;;;;;5075792;28;20100;-84
2021/12/26 06:17:39;;;;;;;5.60;2.90;;;7.70;50.60;;;;;;5057749;28;20523;-85
2021/12/26 06:20:13;;;;;;;6.72;3.47;;;7.80;52.30;;;;;;5057631;28;20111;-85
2021/12/26 06:22:40;;;;;;;6.78;3.33;;;8.00;52.20;;;;;;5057699;28;20027;-85
2021/12/26 06:25:06;;;;;;;6.40;2.75;;;7.60;49.30;;;;;;5057344;28;20111;-86
2021/12/26 06:27:34;;;;;;;5.18;2.28;;;7.40;49.00;;;;;;5075119;28;20121;-85
2021/12/26 06:30:00;;;;;;;4.90;2.55;;;7.20;49.40;;;;;;5075133;28;20483;-84
2021/12/26 06:32:25;;;;;;;4.78;2.50;;;6.60;49.30;;;;;;5075353;28;20025;-85
2021/12/26 06:34:51;;;;;;;5.45;2.40;;;6.80;50.20;;;;;;5075091;28;20024;-85
2021/12/26 06:37:17;;;;;;;11.48;5.78;;;6.90;50.40;;;;;;5057751;28;20098;-86
2021/12/26 06:39:43;;;;;;;9.18;5.22;;;6.60;51.20;;;;;;5057522;28;20063;-86
2021/12/26 06:42:08;;;;;;;8.18;4.53;;;6.40;51.90;;;;;;5057063;28;20047;-86
2021/12/26 06:44:34;;;;;;;8.35;4.25;;;6.50;51.60;;;;;;5057250;28;20029;-85
2021/12/26 06:47:00;;;;;;;7.35;4.00;;;7.20;51.60;;;;;;5057488;28;20032;-86
2021/12/26 06:49:26;;;;;;;7.43;4.07;;;7.60;51.20;;;;;;5057064;28;20458;-86
2021/12/26 06:51:51;;;;;;;7.25;3.70;;;7.90;51.00;;;;;;5073615;28;20054;-84
2021/12/26 06:54:17;;;;;;;5.63;3.20;;;8.10;50.60;;;;;;5053308;28;20032;-85
2021/12/26 06:56:43;;;;;;;7.20;3.38;;;7.80;49.50;;;;;;5056683;28;20056;-86
2021/12/26 06:59:09;;;;;;;5.35;2.90;;;7.70;49.10;;;;;;5057022;28;20098;-86
2021/12/26 07:01:34;;;;;;;6.43;3.25;;;7.80;51.00;;;;;;5057052;28;20025;-85
2021/12/26 07:04:04;;;;;;;11.38;5.20;;;8.10;50.00;;;;;;4863243;28;10000620;-85
2021/12/26 07:06:30;;;;;;;17.13;7.70;;;8.20;49.40;;;;;;5074227;28;20228;-84
2021/12/26 07:08:56;;;;;;;12.77;6.82;;;8.10;48.70;;;;;;5056068;28;20491;-84
2021/12/26 07:11:53;;;;;;;9.63;5.72;;;8.20;49.70;;;;;;5055567;28;20090;-83
2021/12/26 07:14:18;;;;;;;5.57;2.90;;;8.50;49.40;;;;;;5074175;28;20024;-84
2021/12/26 07:16:44;;;;;;;6.00;3.25;;;8.60;49.20;;;;;;5054069;28;20030;-83
2021/12/26 07:19:10;;;;;;;7.35;3.88;;;8.40;48.80;;;;;;5037572;28;20591;-83
2021/12/26 07:21:36;;;;;;;7.07;4.28;;;6.80;50.90;;;;;;5068006;28;20021;-83
2021/12/26 07:24:01;;;;;;;5.25;3.10;;;6.80;52.00;;;;;;5056178;28;20082;-81
2021/12/26 07:26:27;;;;;;;7.32;4.07;;;7.10;52.90;;;;;;5073951;28;20099;-85
2021/12/26 07:28:53;;;;;;;13.25;4.80;;;7.60;50.10;;;;;;5055515;28;20049;-83
2021/12/26 07:31:19;;;;;;;12.85;8.57;;;8.00;49.80;;;;;;5073940;28;20032;-83
2021/12/26 07:33:44;;;;;;;5.10;2.78;;;8.30;48.10;;;;;;5073976;28;20108;-84
2021/12/26 07:37:43;;;;;;;4.82;2.17;;;8.50;47.70;;;;;;4773366;27;10001305;-84
2021/12/26 07:40:10;;;;;;;5.90;2.60;;;8.20;46.50;;;;;;5109288;28;20028;-83
2021/12/26 07:42:35;;;;;;;5.40;2.92;;;8.10;48.70;;;;;;5109743;28;20047;-86
2021/12/26 07:45:04;;;;;;;5.07;2.72;;;8.10;48.30;;;;;;5111394;28;20154;-84
2021/12/26 07:47:30;;;;;;;6.90;4.35;;;8.30;47.50;;;;;;5106019;28;20027;-81
2021/12/26 07:49:56;;;;;;;6.28;3.78;;;8.50;47.00;;;;;;5068964;28;20033;-86
2021/12/26 07:52:27;;;;;;;5.57;3.00;;;8.60;47.40;;;;;;5068997;28;20155;-83
2021/12/26 07:54:52;;;;;;;6.25;3.55;;;8.70;47.70;;;;;;5070747;28;20539;-84
2021/12/26 07:57:18;;;;;;;4.97;2.88;;;8.30;45.60;;;;;;5089006;28;20496;-83
2021/12/26 07:59:44;;;;;;;6.85;3.40;;;8.60;46.00;;;;;;5087851;28;20035;-83
2021/12/26 08:02:18;;;;;;;7.60;3.40;;;9.00;46.90;;;;;;5081397;28;20029;-83
2021/12/26 08:04:45;;;;;;;6.15;3.35;;;7.90;47.70;;;;;;5085388;28;20418;-87
2021/12/26 08:07:11;;;;;;;7.72;3.35;;;7.70;49.30;;;;;;5086772;28;20035;-85
2021/12/26 08:09:36;;;;;;;7.50;3.10;;;8.00;45.80;;;;;;5086686;28;20028;-83
2021/12/26 08:12:02;;;;;;;5.72;3.28;;;7.80;47.80;;;;;;5088941;28;20064;-84
2021/12/26 08:14:28;;;;;;;6.25;3.13;;;8.30;47.90;;;;;;5088437;28;20016;-84
2021/12/26 08:16:54;;;;;;;9.63;3.70;;;8.70;47.10;;;;;;5085371;28;20037;-83
2021/12/26 08:19:19;;;;;;;8.10;4.10;;;9.10;47.20;;;;;;5088501;28;20028;-83
2021/12/26 08:21:45;;;;;;;11.50;6.80;;;9.10;45.90;;;;;;5088927;28;20028;-87
2021/12/26 08:24:11;;;;;;;12.18;5.63;;;8.80;46.50;;;;;;5089371;28;20023;-86
2021/12/26 08:26:37;;;;;;;9.45;4.80;;;9.00;47.10;;;;;;5088864;28;20020;-87
2021/12/26 08:29:02;;;;;;;11.98;6.68;;;9.20;45.80;;;;;;5101047;28;20067;-85
2021/12/26 08:32:25;;;;;;;9.77;4.95;;;8.90;44.00;;;;;;5091371;28;20035;-85
2021/12/26 08:34:52;;;;;;;13.32;6.13;;;8.90;45.20;;;;;;5090543;28;20024;-81
2021/12/26 08:40:41;;;;;;;8.07;3.78;;;9.40;43.40;;;;;;5108080;28;20057;-86
2021/12/26 08:43:07;;;;;;;8.68;3.97;;;9.00;42.40;;;;;;5090600;28;20049;-85
2021/12/26 08:45:33;;;;;;;9.48;4.03;;;9.10;41.00;;;;;;5090784;28;20707;-84
2021/12/26 08:48:00;;;;;;;9.10;4.53;;;9.50;42.60;;;;;;5083157;28;20486;-83
2021/12/26 08:50:27;;;;;;;8.73;4.22;;;10.00;42.10;;;;;;5077020;28;20554;-83
2021/12/26 08:52:54;;;;;;;6.32;2.90;;;10.10;41.20;;;;;;5077508;28;20206;-85
2021/12/26 08:55:23;;;;;;;6.35;2.88;;;10.30;40.50;;;;;;5077192;28;20783;-83
2021/12/26 08:57:50;;;;;;;5.17;2.50;;;10.50;40.20;;;;;;5077254;28;20036;-84
2021/12/26 09:00:16;;;;;;;5.38;2.40;;;10.90;40.40;;;;;;5077509;28;20896;-84
2021/12/26 09:02:42;;;;;;;6.45;2.53;;;11.10;40.20;;;;;;5094580;28;20417;-84
2021/12/26 09:05:09;;;;;;;26.50;11.45;;;11.60;39.30;;;;;;5077203;28;20529;-85
2021/12/26 09:07:42;;;;;;;13.73;6.32;;;12.10;37.60;;;;;;5075367;28;20017;-84
2021/12/26 09:10:10;;;;;;;9.15;4.80;;;12.60;38.10;;;;;;5071801;28;20112;-85
2021/12/26 09:12:36;;;;;;;15.35;9.57;;;13.20;37.70;;;;;;5071705;28;20104;-83
2021/12/26 09:15:04;;;;;;;5.68;2.20;;;12.90;38.50;;;;;;5083708;28;20078;-82
2021/12/26 09:17:30;;;;;;;4.68;2.28;;;12.30;36.70;;;;;;5075963;28;20487;-84
2021/12/26 09:19:56;;;;;;;5.40;2.40;;;11.40;37.30;;;;;;5077376;28;20032;-82
2021/12/26 09:22:22;;;;;;;6.18;2.72;;;11.50;38.00;;;;;;5089960;28;20024;-81
2021/12/26 09:24:48;;;;;;;8.07;3.28;;;12.10;38.50;;;;;;5095081;28;20020;-83
2021/12/26 09:27:15;;;;;;;6.07;3.10;;;12.70;39.20;;;;;;5095872;28;20048;-83
2021/12/26 09:29:41;;;;;;;6.18;2.60;;;12.60;37.00;;;;;;5094469;28;20027;-84
2021/12/26 09:32:07;;;;;;;6.07;3.40;;;12.10;36.20;;;;;;5094262;28;20039;-83
2021/12/26 09:34:34;;;;;;;5.50;2.70;;;12.70;38.40;;;;;;5084515;28;20387;-81
2021/12/26 09:37:02;;;;;;;5.53;2.65;;;13.30;36.90;;;;;;5073926;28;20048;-82
2021/12/26 09:39:28;;;;;;;5.57;2.65;;;13.80;36.60;;;;;;5076480;28;20021;-80
2021/12/26 09:41:54;;;;;;;5.13;2.00;;;13.80;37.00;;;;;;5067961;28;20045;-81
2021/12/26 09:44:21;;;;;;;3.97;2.15;;;13.90;36.20;;;;;;5053775;28;20071;-82
2021/12/26 09:46:47;;;;;;;6.07;2.70;;;13.00;36.60;;;;;;5057514;28;20139;-81
2021/12/26 09:49:14;;;;;;;8.10;4.13;;;12.70;37.00;;;;;;5095436;28;20039;-81
2021/12/26 09:51:40;;;;;;;21.95;11.93;;;12.00;37.30;;;;;;5094385;28;20435;-81
2021/12/26 09:54:07;;;;;;;7.55;3.72;;;12.50;38.60;;;;;;5079290;28;20086;-82
2021/12/26 09:56:34;;;;;;;6.63;3.38;;;12.70;37.60;;;;;;5074782;28;20364;-82
2021/12/26 09:59:05;;;;;;;7.82;3.97;;;13.20;37.80;;;;;;5072194;28;20024;-81
2021/12/26 10:01:34;;;;;;;7.63;3.70;;;13.90;37.30;;;;;;5073941;28;20028;-81
2021/12/26 10:04:03;;;;;;;7.38;3.70;;;15.40;36.80;;;;;;5091035;28;20020;-82
2021/12/26 10:06:33;;;;;;;9.65;3.67;;;16.40;35.40;;;;;;5093051;28;20372;-82
2021/12/26 10:09:03;;;;;;;4.95;2.47;;;16.50;34.50;;;;;;5093035;28;20123;-82
2021/12/26 10:11:35;;;;;;;4.68;2.47;;;16.00;34.70;;;;;;5088508;28;20101;-80
2021/12/26 10:14:04;;;;;;;5.03;2.25;;;16.20;35.30;;;;;;5093309;28;20028;-80
2021/12/26 10:16:34;;;;;;;5.80;2.30;;;16.20;33.50;;;;;;5093119;28;20035;-80
2021/12/26 10:19:02;;;;;;;4.13;1.88;;;15.50;34.40;;;;;;5093255;28;20463;-80
2021/12/26 10:22:10;;;;;;;;;;;;;;;;;;;;;
2021/12/26 10:24:40;;;;;;;4.35;2.20;;;15.80;34.10;;;;;;5073611;28;20112;-81
2021/12/26 10:27:07;;;;;;;4.28;2.15;;;15.70;35.20;;;;;;5085112;28;20058;-82
2021/12/26 10:29:34;;;;;;;4.35;2.20;;;16.80;34.80;;;;;;5092850;28;20024;-81
2021/12/26 10:32:05;;;;;;;4.72;2.15;;;17.90;34.10;;;;;;5084675;28;20111;-81
2021/12/26 10:34:48;;;;;;;5.97;2.40;;;18.00;33.70;;;;;;5072461;28;20082;-83
2021/12/26 10:37:21;;;;;;;5.60;2.28;;;18.40;31.90;;;;;;5079704;28;20036;-80
2021/12/26 10:39:56;;;;;;;5.75;2.70;;;18.00;32.40;;;;;;5076267;28;20377;-80
2021/12/26 10:42:25;;;;;;;7.55;2.50;;;17.60;33.00;;;;;;5072384;28;20085;-80
2021/12/26 10:44:54;;;;;;;6.05;3.20;;;18.00;32.70;;;;;;5072334;28;20020;-80
2021/12/26 10:47:23;;;;;;;5.97;2.83;;;18.50;33.40;;;;;;5072674;28;20031;-81
2021/12/26 10:49:54;;;;;;;4.35;2.60;;;18.10;32.50;;;;;;5081593;28;20033;-83
2021/12/26 10:52:43;;;;;;;4.85;2.60;;;18.20;33.10;;;;;;5092506;28;20036;-82
2021/12/26 10:55:15;;;;;;;4.85;2.85;;;17.90;33.90;;;;;;5075352;28;20036;-82
2021/12/26 10:57:46;;;;;;;8.40;4.40;;;17.50;32.90;;;;;;5071907;28;20042;-85
2021/12/26 11:00:19;;;;;;;15.35;10.10;;;16.60;33.30;;;;;;5051882;28;20049;-86
2021/12/26 11:03:00;;;;;;;9.65;5.72;;;16.00;31.90;;;;;;4704633;28;9999858;-81
2021/12/26 11:05:35;;;;;;;5.18;2.30;;;15.90;33.40;;;;;;5067559;28;20075;-82
2021/12/26 11:08:06;;;;;;;10.18;4.60;;;15.90;32.60;;;;;;5073254;28;20020;-79
2021/12/26 11:10:37;;;;;;;8.88;2.50;;;14.10;32.70;;;;;;5072729;28;20375;-79
2021/12/26 11:13:08;;;;;;;50.33;36.83;;;13.30;35.30;;;;;;5073197;28;20040;-81
2021/12/26 11:15:40;;;;;;;10.25;5.65;;;13.50;35.30;;;;;;5059675;28;20027;-79
2021/12/26 11:18:11;;;;;;;5.97;2.92;;;13.60;32.70;;;;;;5082903;28;20383;-79
2021/12/26 11:20:37;;;;;;;4.72;1.80;;;13.80;33.60;;;;;;5083641;28;20071;-80
2021/12/26 11:23:15;;;;;;;4.93;2.30;;;12.80;32.00;;;;;;5066741;28;20472;-79
2021/12/26 11:25:50;;;;;;;5.45;2.08;;;11.30;35.40;;;;;;5054510;28;20029;-80
2021/12/26 11:28:18;;;;;;;5.43;2.20;;;10.50;36.40;;;;;;5078082;28;20091;-80
2021/12/26 11:30:45;;;;;;;5.68;2.00;;;10.70;36.50;;;;;;5073487;28;20083;-79
2021/12/26 11:33:12;;;;;;;6.45;2.60;;;11.10;36.20;;;;;;5070820;28;20021;-80
2021/12/26 11:35:40;;;;;;;4.68;2.10;;;11.40;37.00;;;;;;5072903;28;20040;-80
2021/12/26 11:38:10;;;;;;;5.97;2.88;;;11.40;36.00;;;;;;5071677;28;20029;-80
2021/12/26 11:40:37;;;;;;;6.05;2.53;;;11.80;37.30;;;;;;5071970;28;20112;-80
2021/12/26 11:43:14;;;;;;;3.78;1.70;;;11.60;37.60;;;;;;5072786;28;20115;-78
2021/12/26 11:46:01;;;;;;;3.95;1.70;;;11.10;36.10;;;;;;5071874;28;20021;-79
2021/12/26 11:48:49;;;;;;;5.10;1.90;;;10.20;36.60;;;;;;5073027;28;20024;-80
2021/12/26 11:51:20;;;;;;;3.53;1.60;;;10.20;37.60;;;;;;5071672;28;20029;-81
2021/12/26 11:54:31;;;;;;;4.38;2.03;;;10.10;35.80;;;;;;5071773;28;20032;-80
2021/12/26 11:56:57;;;;;;;;;;;9.80;37.10;;;;;;5071082;28;20127;-80
2021/12/26 11:59:50;;;;;;;4.93;2.53;;;10.10;36.50;;;;;;5053940;28;19946;-79
2021/12/26 12:02:55;;;;;;;6.68;2.63;;;10.30;36.20;;;;;;5052970;28;20040;-79
2021/12/26 12:05:22;;;;;;;4.95;2.35;;;10.40;37.10;;;;;;4994046;28;20030;-80
2021/12/26 12:08:02;;;;;;;7.40;2.65;;;10.70;37.40;;;;;;5011074;28;20038;-80
2021/12/26 12:10:34;;;;;;;4.22;1.80;;;10.80;36.20;;;;;;5010967;28;20068;-79
2021/12/26 12:13:00;;;;;;;4.53;1.95;;;10.90;35.50;;;;;;5011326;28;20092;-84
2021/12/26 12:15:57;;;;;;;3.97;1.80;;;10.80;36.60;;;;;;5010895;28;20030;-78
2021/12/26 12:18:31;;;;;;;4.38;1.48;;;10.60;36.60;;;;;;4991282;28;20380;-79
2021/12/26 12:21:14;;;;;;;3.70;1.67;;;9.90;37.40;;;;;;4994003;28;20527;-79
2021/12/26 12:24:02;;;;;;;3.78;1.67;;;9.60;37.70;;;;;;5012799;28;20069;-80
2021/12/26 12:26:49;;;;;;;4.70;1.90;;;9.50;36.60;;;;;;5004974;28;20030;-87
2021/12/26 12:29:43;;;;;;;3.72;2.22;;;9.60;37.70;;;;;;4994938;28;20030;-79
2021/12/26 12:32:41;;;;;;;10.50;2.10;;;9.60;37.70;;;;;;5003290;28;20588;-79
2021/12/26 12:35:14;;;;;;;3.45;1.88;;;9.40;37.20;;;;;;4997858;28;20100;-81
2021/12/26 12:37:46;;;;;;;3.65;1.70;;;9.30;37.70;;;;;;5017371;28;20140;-81
2021/12/26 12:40:30;;;;;;;4.13;2.05;;;9.70;36.60;;;;;;5067681;28;20040;-81
2021/12/26 12:43:20;;;;;;;4.15;1.92;;;10.00;36.00;;;;;;5076137;28;20027;-80
2021/12/26 12:45:52;;;;;;;8.57;2.60;;;10.00;37.50;;;;;;5075983;28;20028;-81
2021/12/26 12:48:35;;;;;;;24.40;13.77;;;10.00;38.60;;;;;;5075983;28;20025;-86
2021/12/26 12:51:21;;;;;;;37.67;23.10;;;10.30;36.80;;;;;;5075439;28;20397;-82
2021/12/26 12:53:48;;;;;;;55.30;22.50;;;9.40;36.10;;;;;;5074921;28;20068;-79
2021/12/26 12:56:41;;;;;;;15.00;6.85;;;9.50;37.30;;;;;;5075715;28;20384;-80
2021/12/26 12:59:16;;;;;;;7.75;3.70;;;9.50;38.60;;;;;;5074519;28;20077;-80
2021/12/26 13:01:46;;;;;;;6.80;3.35;;;9.40;37.50;;;;;;5074537;28;20036;-82
2021/12/26 13:04:14;;;;;;;5.35;2.50;;;9.50;37.80;;;;;;5089456;28;20021;-79
2021/12/26 13:07:03;;;;;;;5.22;2.70;;;9.60;37.80;;;;;;5085234;28;20400;-79
2021/12/26 13:09:30;;;;;;;4.13;2.00;;;9.80;38.10;;;;;;4704429;28;9999963;-78
2021/12/26 13:11:59;;;;;;;4.72;2.08;;;9.60;38.00;;;;;;5052963;28;20511;-78
2021/12/26 13:14:44;;;;;;;4.40;2.30;;;9.60;37.90;;;;;;5053520;28;20033;-80
2021/12/26 13:17:28;;;;;;;4.95;2.60;;;9.70;37.30;;;;;;5052275;28;20047;-86